Time;durP1;ratioP1;P1;durP2;ratioP2;P2;SDS_P1;SDS_P2;PMS_P1;PMS_P2;Temp;Humidity;BMP_temperature;BMP_pressure;BME280_temperature;BME280_humidity;BME280_pressure;Samples;Min_cycle;Max_cycle;Signal;HPM_P1;HPM_P2
2022/04/06 00:01:03;;;;;;;10.10;9.20;;;;;;;6.91;78.41;96761.36;108013;1290;23347;-86
2022/04/06 00:03:31;;;;;;;10.80;9.80;;;;;;;6.93;78.41;96754.91;107962;1290;22443;-85
2022/04/06 00:05:59;;;;;;;12.60;11.50;;;;;;;6.96;78.27;96753.67;107986;1290;22613;-85
2022/04/06 00:08:27;;;;;;;11.80;10.70;;;;;;;6.97;78.22;96748.45;107884;1289;22434;-85
2022/04/06 00:10:55;;;;;;;10.20;9.20;;;;;;;6.98;78.17;96753.48;107992;1290;22295;-84
2022/04/06 00:13:23;;;;;;;10.60;9.60;;;;;;;7.01;78.21;96747.35;108002;1290;23067;-86
2022/04/06 00:15:51;;;;;;;11.20;10.20;;;;;;;7.03;78.05;96747.25;107980;1290;22404;-86
2022/04/06 00:18:19;;;;;;;11.80;10.80;;;;;;;7.04;78.18;96750.87;107978;1290;23433;-85
2022/04/06 00:20:47;;;;;;;11.10;10.10;;;;;;;7.03;77.93;96746.61;107984;1290;22344;-87
2022/04/06 00:23:15;;;;;;;9.20;8.40;;;;;;;7.04;77.97;96748.23;108000;1290;23160;-87
2022/04/06 00:25:43;;;;;;;10.30;9.40;;;;;;;7.07;78.01;96744.47;108016;1290;22284;-86
2022/04/06 00:28:11;;;;;;;10.20;9.20;;;;;;;7.07;77.98;96742.23;107657;1290;22427;-86
2022/04/06 00:30:39;;;;;;;10.50;9.60;;;;;;;7.06;78.05;96738.98;107894;1290;184724;-84
2022/04/06 00:33:07;;;;;;;9.40;8.60;;;;;;;7.05;78.02;96748.80;108003;1290;22304;-86
2022/04/06 00:35:35;;;;;;;10.10;9.10;;;;;;;7.06;78.05;96747.62;108006;1290;22475;-84
2022/04/06 00:38:05;;;;;;;10.40;9.50;;;;;;;7.09;77.90;96752.27;107978;1290;22307;-87
2022/04/06 00:40:36;;;;;;;10.40;9.40;;;;;;;7.10;77.92;96748.88;107983;1290;23190;-86
2022/04/06 00:43:09;;;;;;;11.00;10.10;;;;;;;7.09;77.76;96743.03;107655;1290;22625;-87
2022/04/06 00:45:39;;;;;;;12.30;11.20;;;;;;;7.09;77.76;96732.54;107998;1290;23290;-86
2022/04/06 00:48:08;;;;;;;9.90;9.00;;;;;;;7.10;77.88;96732.80;107992;1290;22412;-87
2022/04/06 00:50:37;;;;;;;10.30;9.40;;;;;;;7.13;77.89;96738.92;107987;1289;23118;-86
2022/04/06 00:53:05;;;;;;;11.90;10.50;;;;;;;7.14;77.57;96733.92;107993;1289;22833;-86
2022/04/06 00:55:36;;;;;;;12.50;11.40;;;;;;;7.12;77.63;96729.47;108003;1290;22347;-86
2022/04/06 00:58:05;;;;;;;12.60;11.40;;;;;;;7.12;77.75;96730.59;107995;1290;22375;-84
2022/04/06 01:00:34;;;;;;;11.80;10.10;;;;;;;7.12;77.75;96725.98;108021;1290;22319;-86
2022/04/06 01:03:02;;;;;;;11.40;10.40;;;;;;;7.16;77.81;96732.21;108007;1290;22391;-86
2022/04/06 01:05:30;;;;;;;11.80;10.80;;;;;;;7.18;77.87;96733.52;108017;1290;23188;-85
2022/04/06 01:08:00;;;;;;;11.10;10.20;;;;;;;7.18;78.05;96725.80;107991;1289;23083;-85
2022/04/06 01:10:29;;;;;;;10.60;9.60;;;;;;;7.17;77.76;96731.11;108011;1290;22300;-88
2022/04/06 01:12:57;;;;;;;9.40;8.50;;;;;;;7.18;77.78;96731.69;108003;1289;23064;-86
2022/04/06 01:15:26;;;;;;;10.00;9.20;;;;;;;7.20;77.65;96725.94;107989;1290;22966;-86
2022/04/06 01:17:54;;;;;;;10.40;9.50;;;;;;;7.21;77.81;96726.67;108029;1290;22322;-86
2022/04/06 01:20:22;;;;;;;11.30;10.30;;;;;;;7.21;77.82;96729.35;107983;1289;22371;-87
2022/04/06 01:22:49;;;;;;;10.10;9.20;;;;;;;7.20;77.84;96728.77;108016;1290;22357;-87
2022/04/06 01:25:17;;;;;;;10.10;9.20;;;;;;;7.20;77.82;96736.93;107997;1290;22470;-88
2022/04/06 01:27:45;;;;;;;10.50;9.60;;;;;;;7.23;77.84;96732.58;108012;1290;22273;-86
2022/04/06 01:30:13;;;;;;;11.40;10.50;;;;;;;7.25;77.82;96734.45;108006;1290;22471;-88
2022/04/06 01:32:41;;;;;;;10.50;9.40;;;;;;;7.25;77.68;96730.15;108014;1290;23017;-88
2022/04/06 01:35:09;;;;;;;11.20;10.10;;;;;;;7.24;77.87;96735.69;108007;1290;22215;-87
2022/04/06 01:37:37;;;;;;;10.00;9.00;;;;;;;7.25;77.82;96735.10;108012;1290;22399;-88
2022/04/06 01:40:07;;;;;;;10.10;9.20;;;;;;;7.27;77.94;96740.20;107998;1290;23129;-87
2022/04/06 01:42:35;;;;;;;10.10;9.20;;;;;;;7.28;77.84;96737.11;107718;1290;22288;-88
2022/04/06 01:45:03;;;;;;;10.90;9.90;;;;;;;7.27;77.97;96737.15;108021;1290;22430;-89
2022/04/06 01:47:31;;;;;;;9.60;8.80;;;;;;;7.27;77.87;96729.86;107993;1290;22415;-88
2022/04/06 01:52:45;;;;;;;9.90;9.00;;;;;;;7.32;77.97;96734.83;108003;1290;22286;-87
2022/04/06 01:55:15;;;;;;;11.30;10.30;;;;;;;7.33;77.82;96753.40;107639;1290;22387;-89
2022/04/06 01:57:44;;;;;;;11.40;10.40;;;;;;;7.32;77.98;96742.37;107672;1290;22775;-88
2022/04/06 02:00:18;;;;;;;10.10;9.20;;;;;;;7.33;78.15;96742.15;107987;1290;22382;-87
2022/04/06 02:02:52;;;;;;;10.20;9.40;;;;;;;7.34;77.92;96751.48;108015;1290;22422;-86
2022/04/06 02:05:21;;;;;;;10.40;9.50;;;;;;;7.37;78.06;96747.89;108048;1290;22317;-88
2022/04/06 02:07:50;;;;;;;12.20;11.10;;;;;;;7.38;77.97;96740.95;107754;1290;22250;-88
2022/04/06 02:10:18;;;;;;;10.40;9.50;;;;;;;7.36;78.23;96749.83;108062;1290;22458;-88
2022/04/06 02:12:47;;;;;;;11.20;10.20;;;;;;;7.36;78.32;96741.61;108056;1290;22404;-88
2022/04/06 02:15:15;;;;;;;10.20;9.30;;;;;;;7.35;78.33;96745.85;108034;1290;22983;-87
2022/04/06 02:17:44;;;;;;;10.30;9.40;;;;;;;7.34;78.23;96739.95;108019;1289;22961;-89
2022/04/06 02:20:12;;;;;;;11.20;10.30;;;;;;;7.33;78.39;96741.33;108034;1290;22353;-88
2022/04/06 02:22:45;;;;;;;10.90;9.90;;;;;;;7.29;78.56;96745.63;107950;1289;22346;-86
2022/04/06 02:25:13;;;;;;;10.80;9.80;;;;;;;7.25;79.24;96733.43;108013;1290;22294;-86
2022/04/06 02:27:49;;;;;;;10.70;9.80;;;;;;;7.24;79.40;96736.52;107893;1290;22556;-86
2022/04/06 02:30:18;;;;;;;11.90;10.80;;;;;;;7.23;79.27;96748.74;108006;1290;22280;-86
2022/04/06 02:32:46;;;;;;;10.90;9.90;;;;;;;7.23;79.40;96745.42;108015;1289;22483;-86
2022/04/06 02:35:14;;;;;;;11.40;10.50;;;;;;;7.23;79.20;96739.98;108008;1290;22374;-86
2022/04/06 02:37:44;;;;;;;11.00;10.10;;;;;;;7.23;79.20;96736.95;108002;1289;22480;-86
2022/04/06 02:40:14;;;;;;;11.40;10.40;;;;;;;7.25;79.44;96734.88;107993;1290;22429;-87
2022/04/06 02:42:44;;;;;;;12.20;11.10;;;;;;;7.27;79.25;96742.02;107656;1290;22362;-89
2022/04/06 02:45:13;;;;;;;12.60;11.40;;;;;;;7.28;79.42;96739.02;108020;1290;22348;-86
2022/04/06 02:47:47;;;;;;;11.90;10.90;;;;;;;7.28;79.22;96738.78;108005;1290;22956;-85
2022/04/06 02:50:15;;;;;;;10.50;9.60;;;;;;;7.30;79.43;96737.41;107999;1290;22995;-87
2022/04/06 02:52:43;;;;;;;11.50;10.50;;;;;;;7.33;79.22;96735.43;108002;1290;23183;-87
2022/04/06 02:55:12;;;;;;;11.30;10.40;;;;;;;7.36;79.17;96742.61;107988;1290;22341;-85
2022/04/06 02:57:42;;;;;;;12.00;11.00;;;;;;;7.36;79.13;96734.83;108004;1290;22334;-86
2022/04/06 03:00:13;;;;;;;10.90;9.90;;;;;;;7.37;79.03;96733.16;107665;1290;22377;-86
2022/04/06 03:02:46;;;;;;;10.60;9.70;;;;;;;7.37;79.11;96743.22;108012;1290;22337;-87
2022/04/06 03:05:14;;;;;;;11.30;10.40;;;;;;;7.39;79.08;96740.77;108000;1290;22276;-87
2022/04/06 03:07:42;;;;;;;12.40;11.40;;;;;;;7.40;79.07;96743.67;108005;1290;22403;-88
2022/04/06 03:10:10;;;;;;;12.50;11.40;;;;;;;7.40;79.16;96743.14;108021;1290;22383;-87
2022/04/06 03:12:37;;;;;;;10.80;9.90;;;;;;;7.42;78.78;96749.42;107972;1289;22406;-87
2022/04/06 03:15:06;;;;;;;11.90;10.90;;;;;;;7.44;78.95;96747.39;108014;1290;22710;-88
2022/04/06 03:17:35;;;;;;;11.40;10.40;;;;;;;7.46;78.96;96748.63;107997;1290;23082;-87
2022/04/06 03:20:07;;;;;;;11.30;10.40;;;;;;;7.47;78.92;96745.80;108000;1290;22318;-88
2022/04/06 03:22:35;;;;;;;12.70;11.60;;;;;;;7.47;78.98;96742.44;107681;1290;22304;-87
2022/04/06 03:25:03;;;;;;;11.30;10.30;;;;;;;7.47;79.06;96744.04;107896;1291;22279;-89
2022/04/06 03:27:31;;;;;;;11.10;10.10;;;;;;;7.48;78.82;96751.42;107699;1290;22386;-84
2022/04/06 03:30:00;;;;;;;12.00;10.90;;;;;;;7.50;78.75;96749.55;108013;1290;22267;-88
2022/04/06 03:32:28;;;;;;;12.20;11.20;;;;;;;7.50;79.04;96756.83;107678;1290;22391;-90
2022/04/06 03:34:56;;;;;;;11.80;10.60;;;;;;;7.48;78.80;96759.13;108008;1289;22344;-88
2022/04/06 03:37:24;;;;;;;10.00;9.10;;;;;;;7.48;78.92;96753.56;108024;1290;22909;-88
2022/04/06 03:39:52;;;;;;;11.80;10.70;;;;;;;7.49;79.02;96757.34;107996;1290;23105;-88
2022/04/06 03:42:20;;;;;;;12.50;11.40;;;;;;;7.52;78.96;96762.27;107691;1290;23002;-89
2022/04/06 03:44:48;;;;;;;13.20;12.00;;;;;;;7.52;78.89;96766.64;108051;1290;22274;-88
2022/04/06 03:47:16;;;;;;;11.50;10.50;;;;;;;7.52;78.62;96769.77;108142;1290;22471;-88
2022/04/06 03:49:44;;;;;;;11.00;10.10;;;;;;;7.53;78.82;96759.95;107588;1290;22313;-88
2022/04/06 03:52:12;;;;;;;11.90;10.90;;;;;;;7.56;78.92;96756.73;107685;1290;22364;-88
2022/04/06 03:54:40;;;;;;;12.10;11.00;;;;;;;7.56;78.60;96755.61;107987;1290;23098;-88
2022/04/06 03:57:08;;;;;;;11.70;10.70;;;;;;;7.56;78.69;96757.59;107984;1290;22596;-88
2022/04/06 03:59:36;;;;;;;12.50;11.40;;;;;;;7.55;78.67;96762.60;107883;1291;23122;-87
2022/04/06 04:02:04;;;;;;;11.20;10.20;;;;;;;7.56;78.74;96762.80;107971;1290;23270;-87
2022/04/06 04:04:32;;;;;;;12.40;11.20;;;;;;;7.59;78.76;96764.23;107984;1290;23250;-90
2022/04/06 04:07:01;;;;;;;11.60;10.60;;;;;;;7.60;78.72;96769.25;108003;1290;22377;-90
2022/04/06 04:09:29;;;;;;;12.60;11.60;;;;;;;7.60;78.58;96770.04;107841;1291;22909;-89
2022/04/06 04:11:57;;;;;;;12.80;11.80;;;;;;;7.59;78.76;96768.45;107972;1290;22368;-89
2022/04/06 04:14:25;;;;;;;11.30;10.30;;;;;;;7.60;78.65;96774.23;107998;1290;23127;-89
2022/04/06 04:16:53;;;;;;;12.90;11.80;;;;;;;7.61;78.71;96771.37;107663;1290;22811;-90
2022/04/06 04:19:21;;;;;;;13.10;12.00;;;;;;;7.60;78.69;96768.71;107999;1290;22368;-89
2022/04/06 04:21:49;;;;;;;13.60;12.50;;;;;;;7.61;78.61;96772.59;107828;1291;22350;-89
2022/04/06 04:24:18;;;;;;;12.60;11.50;;;;;;;7.60;78.71;96769.94;107654;1292;23119;-90
2022/04/06 04:26:46;;;;;;;12.50;11.50;;;;;;;7.60;78.62;96774.39;107998;1290;22212;-88
2022/04/06 04:29:15;;;;;;;12.40;11.30;;;;;;;7.61;78.73;96770.33;107985;1290;22314;-88
2022/04/06 04:31:43;;;;;;;12.80;11.80;;;;;;;7.63;78.70;96774.79;107997;1290;22443;-89
2022/04/06 04:34:11;;;;;;;13.50;12.30;;;;;;;7.63;78.68;96778.77;108023;1290;22340;-88
2022/04/06 04:36:39;;;;;;;12.30;11.30;;;;;;;7.62;78.80;96772.73;108023;1290;22591;-88
2022/04/06 04:39:07;;;;;;;12.70;11.70;;;;;;;7.63;78.74;96772.70;107823;1291;22989;-88
2022/04/06 04:41:35;;;;;;;13.10;11.90;;;;;;;7.67;78.89;96775.87;107988;1290;22471;-89
2022/04/06 04:44:03;;;;;;;14.40;13.20;;;;;;;7.69;78.72;96776.92;107999;1289;22365;-89
2022/04/06 04:46:31;;;;;;;16.40;14.70;;;;;;;7.70;78.77;96781.19;107992;1290;22794;-87
2022/04/06 04:48:59;;;;;;;14.70;13.30;;;;;;;7.69;78.84;96779.92;107991;1290;22402;-88
2022/04/06 04:51:28;;;;;;;14.00;12.80;;;;;;;7.72;78.76;96788.23;107862;1291;22360;-87
2022/04/06 04:53:58;;;;;;;13.20;12.10;;;;;;;7.75;78.76;96788.10;107868;1290;23278;-86
2022/04/06 04:56:28;;;;;;;14.50;13.20;;;;;;;7.78;78.59;96793.58;108003;1290;22366;-86
2022/04/06 04:58:56;;;;;;;16.10;14.60;;;;;;;7.79;78.50;96793.11;108012;1290;22318;-86
2022/04/06 05:01:25;;;;;;;14.40;13.20;;;;;;;7.80;78.89;96799.69;108013;1290;22266;-86
2022/04/06 05:03:53;;;;;;;14.00;12.80;;;;;;;7.82;78.63;96802.84;108067;1290;22427;-87
2022/04/06 05:06:24;;;;;;;14.30;13.10;;;;;;;7.86;78.65;96807.78;107772;1290;23106;-86
2022/04/06 05:08:58;;;;;;;14.30;13.10;;;;;;;7.88;78.49;96815.09;108124;1290;22432;-87
2022/04/06 05:11:31;;;;;;;16.60;15.10;;;;;;;7.89;78.50;96819.30;107716;1294;22534;-87
2022/04/06 05:14:06;;;;;;;16.50;15.00;;;;;;;7.90;78.46;96829.13;107866;1290;22497;-88
2022/04/06 05:16:35;;;;;;;15.80;14.20;;;;;;;7.91;78.33;96830.50;107682;1290;22449;-88
2022/04/06 05:19:03;;;;;;;14.80;13.40;;;;;;;7.93;78.21;96830.39;108034;1290;22472;-88
2022/04/06 05:21:31;;;;;;;14.90;13.60;;;;;;;7.95;78.31;96828.09;108007;1290;22447;-88
2022/04/06 05:23:59;;;;;;;16.50;15.00;;;;;;;7.96;78.29;96835.35;108059;1290;22347;-87
2022/04/06 05:26:27;;;;;;;13.70;12.50;;;;;;;7.97;78.24;96836.30;108034;1290;22362;-86
2022/04/06 05:28:55;;;;;;;14.00;12.70;;;;;;;7.99;78.48;96832.82;108066;1290;22215;-89
2022/04/06 05:31:23;;;;;;;14.30;12.90;;;;;;;8.03;78.01;96837.18;108061;1290;22289;-88
2022/04/06 05:33:51;;;;;;;14.70;13.30;;;;;;;8.05;78.10;96838.30;107910;1290;22836;-84
2022/04/06 05:36:20;;;;;;;15.50;14.20;;;;;;;8.06;78.24;96834.59;108005;1290;22476;-87
2022/04/06 05:38:48;;;;;;;14.90;13.60;;;;;;;8.06;78.16;96841.61;108019;1290;22279;-87
2022/04/06 05:41:15;;;;;;;14.00;12.70;;;;;;;8.05;78.21;96837.66;107844;1290;22370;-87
2022/04/06 05:43:43;;;;;;;14.00;12.80;;;;;;;8.09;78.00;96842.93;107836;1290;22262;-87
2022/04/06 05:46:11;;;;;;;17.30;15.70;;;;;;;8.10;77.90;96848.20;108025;1290;22497;-85
2022/04/06 05:48:39;;;;;;;16.30;14.90;;;;;;;8.11;78.15;96848.23;108003;1290;22453;-88
2022/04/06 05:51:07;;;;;;;29.30;26.80;;;;;;;8.11;78.05;96843.98;108045;1290;23038;-87
2022/04/06 05:53:35;;;;;;;24.90;22.30;;;;;;;8.15;78.10;96844.70;108105;1290;22402;-88
2022/04/06 05:56:04;;;;;;;17.70;16.30;;;;;;;8.21;78.04;96843.56;107996;1290;22401;-86
2022/04/06 05:58:31;;;;;;;20.20;18.30;;;;;;;8.27;77.89;96846.54;107976;1290;23101;-86
2022/04/06 06:00:59;;;;;;;18.50;16.90;;;;;;;8.31;78.09;96850.52;108006;1289;22420;-88
2022/04/06 06:03:28;;;;;;;16.90;15.40;;;;;;;8.32;77.81;96853.05;107713;1290;22279;-87
2022/04/06 06:05:56;;;;;;;20.80;19.10;;;;;;;8.37;77.94;96858.63;107988;1290;22395;-85
2022/04/06 06:08:23;;;;;;;18.30;16.80;;;;;;;8.43;77.86;96856.02;108018;1290;22418;-88
2022/04/06 06:10:51;;;;;;;16.10;14.80;;;;;;;8.48;77.76;96855.67;108042;1290;22383;-86
2022/04/06 06:13:19;;;;;;;16.00;14.70;;;;;;;8.52;77.59;96859.64;107742;1290;22994;-87
2022/04/06 06:15:47;;;;;;;14.40;13.00;;;;;;;8.57;77.63;96866.70;107982;1290;22471;-89
2022/04/06 06:18:15;;;;;;;14.20;12.90;;;;;;;8.60;77.10;96862.85;108002;1290;22520;-86
2022/04/06 06:20:43;;;;;;;14.60;13.30;;;;;;;8.66;77.37;96862.41;107998;1290;22908;-87
2022/04/06 06:23:11;;;;;;;15.30;13.90;;;;;;;8.70;77.54;96859.35;107995;1290;22218;-86
2022/04/06 06:25:39;;;;;;;15.30;14.00;;;;;;;8.76;77.34;96863.70;108011;1290;23153;-87
2022/04/06 06:28:08;;;;;;;14.80;13.40;;;;;;;8.81;77.24;96863.92;107988;1290;22564;-88
2022/04/06 06:30:35;;;;;;;14.00;12.70;;;;;;;8.88;77.24;96860.02;107705;1293;22742;-88
2022/04/06 06:33:03;;;;;;;13.50;12.30;;;;;;;8.96;76.80;96869.30;108032;1290;23310;-88
2022/04/06 06:35:31;;;;;;;13.50;12.30;;;;;;;9.00;76.31;96872.16;108010;1288;22543;-87
2022/04/06 06:37:59;;;;;;;15.30;13.90;;;;;;;9.01;75.93;96878.38;108058;1290;22339;-89
2022/04/06 06:40:28;;;;;;;12.60;10.80;;;;;;;9.03;75.97;96869.84;107834;1290;22305;-87
2022/04/06 06:42:57;;;;;;;12.50;11.20;;;;;;;9.08;75.90;96871.77;108019;1290;22453;-88
2022/04/06 06:45:25;;;;;;;20.00;18.00;;;;;;;9.15;76.00;96873.80;107997;1289;22520;-88
2022/04/06 06:47:52;;;;;;;14.90;13.10;;;;;;;9.21;75.93;96876.84;108031;1290;22336;-88
2022/04/06 06:50:20;;;;;;;12.80;11.60;;;;;;;9.25;75.81;96881.30;108008;1289;22569;-87
2022/04/06 06:52:48;;;;;;;11.40;10.20;;;;;;;9.25;75.18;96883.98;108011;1289;22989;-88
2022/04/06 06:55:18;;;;;;;11.00;10.10;;;;;;;9.24;75.40;96878.41;108020;1290;22413;-86
2022/04/06 06:57:47;;;;;;;11.70;10.70;;;;;;;9.23;75.47;96883.19;108004;1290;22292;-86
2022/04/06 07:00:16;;;;;;;14.70;13.40;;;;;;;9.23;75.77;96884.11;107808;1291;22445;-87
2022/04/06 07:02:44;;;;;;;12.70;11.50;;;;;;;9.22;75.82;96894.02;108042;1289;23047;-89
2022/04/06 07:05:12;;;;;;;14.00;12.60;;;;;;;9.22;75.64;96883.07;107606;1290;22361;-87
2022/04/06 07:08:06;;;;;;;11.80;10.70;;;;;;;9.25;75.82;96888.35;108028;1289;22437;-87
2022/04/06 07:10:34;;;;;;;11.80;10.80;;;;;;;9.30;75.60;96885.52;107910;1290;22680;-87
2022/04/06 07:13:02;;;;;;;12.00;10.90;;;;;;;9.33;75.44;96878.59;107798;1290;22232;-90
2022/04/06 07:15:31;;;;;;;13.20;11.40;;;;;;;9.36;75.39;96883.30;107829;1291;22282;-88
2022/04/06 07:17:59;;;;;;;12.10;10.90;;;;;;;9.40;75.46;96880.14;107859;1290;22500;-90
2022/04/06 07:20:29;;;;;;;11.20;10.20;;;;;;;9.47;75.39;96881.54;107798;1291;22524;-87
2022/04/06 07:22:58;;;;;;;12.10;11.00;;;;;;;9.52;75.49;96880.90;107840;1290;22478;-87
2022/04/06 07:25:25;;;;;;;12.60;11.50;;;;;;;9.50;75.06;96891.81;107645;1290;22450;-82
2022/04/06 07:27:53;;;;;;;11.80;10.80;;;;;;;9.46;74.96;96883.41;108152;1290;22315;-88
2022/04/06 07:30:22;;;;;;;11.30;9.70;;;;;;;9.45;75.19;96882.70;107745;1290;22274;-88
2022/04/06 07:32:50;;;;;;;10.20;9.20;;;;;;;9.46;75.29;96883.95;108018;1290;22268;-88
2022/04/06 07:35:18;;;;;;;12.40;11.20;;;;;;;9.49;74.81;96886.98;107984;1290;22404;-85
2022/04/06 07:37:48;;;;;;;11.90;10.80;;;;;;;9.48;74.82;96889.33;107885;1291;22368;-84
2022/04/06 07:40:21;;;;;;;11.20;10.20;;;;;;;9.46;74.61;96894.70;107939;1291;22301;-84
2022/04/06 07:42:50;;;;;;;12.00;10.30;;;;;;;9.43;74.83;96895.92;107643;1293;22926;-84
2022/04/06 07:45:19;;;;;;;9.10;8.20;;;;;;;9.44;74.95;96897.23;107607;1291;23004;-83
2022/04/06 07:47:49;;;;;;;11.20;10.10;;;;;;;9.49;74.93;96890.79;107629;1291;23341;-85
2022/04/06 07:50:19;;;;;;;13.90;12.60;;;;;;;9.52;74.80;96887.84;107971;1290;23197;-85
2022/04/06 07:52:47;;;;;;;14.70;13.40;;;;;;;9.57;74.80;96885.48;107735;1291;22515;-83
2022/04/06 07:55:15;;;;;;;17.20;14.40;;;;;;;9.64;75.13;96887.04;107867;1291;22347;-83
2022/04/06 07:57:44;;;;;;;11.70;9.70;;;;;;;9.72;74.75;96889.00;108225;1290;22448;-81
2022/04/06 08:00:15;;;;;;;10.90;9.90;;;;;;;9.78;74.76;96897.86;108240;1291;22525;-81
2022/04/06 08:02:45;;;;;;;12.00;10.90;;;;;;;9.82;74.69;96892.35;108214;1290;22406;-83
2022/04/06 08:05:14;;;;;;;11.20;9.70;;;;;;;9.88;74.65;96897.64;107920;1290;22468;-83
2022/04/06 08:07:44;;;;;;;13.00;11.40;;;;;;;9.95;74.35;96897.74;107778;1290;22254;-84
2022/04/06 08:10:15;;;;;;;10.80;9.80;;;;;;;9.98;74.21;96897.68;107640;1290;22538;-84
2022/04/06 08:12:43;;;;;;;12.40;10.20;;;;;;;9.98;73.78;96907.84;108070;1290;22328;-84
2022/04/06 08:15:13;;;;;;;12.00;10.80;;;;;;;9.95;74.33;96913.52;108022;1290;23112;-83
2022/04/06 08:17:45;;;;;;;10.70;9.70;;;;;;;9.91;74.47;96909.15;107685;1290;23024;-82
2022/04/06 08:20:15;;;;;;;11.20;10.10;;;;;;;9.85;74.46;96911.56;107994;1290;22375;-83
2022/04/06 08:22:45;;;;;;;13.00;11.70;;;;;;;9.67;75.17;96916.92;107998;1290;22322;-84
2022/04/06 08:25:17;;;;;;;14.70;13.30;;;;;;;9.51;75.71;96923.36;107674;1290;22384;-86
2022/04/06 08:28:05;;;;;;;11.40;10.40;;;;;;;9.37;76.55;96928.79;108023;1290;22261;-83
2022/04/06 08:30:39;;;;;;;12.40;11.10;;;;;;;9.29;76.60;96925.12;107728;1290;22974;-84
2022/04/06 08:33:09;;;;;;;14.40;12.10;;;;;;;9.24;76.90;96929.96;107966;1290;22274;-84
2022/04/06 08:35:38;;;;;;;14.50;13.30;;;;;;;9.22;77.35;96922.77;107988;1290;22593;-85
2022/04/06 08:38:16;;;;;;;12.70;11.60;;;;;;;9.22;77.12;96926.02;107984;1290;22242;-83
2022/04/06 08:40:45;;;;;;;13.20;12.00;;;;;;;9.25;77.53;96933.16;107619;1290;22496;-83
2022/04/06 08:43:15;;;;;;;13.30;12.10;;;;;;;9.32;77.82;96928.56;107854;1290;23066;-84
2022/04/06 08:45:43;;;;;;;13.90;12.50;;;;;;;9.38;78.32;96926.67;107827;1290;22461;-85
2022/04/06 08:48:11;;;;;;;13.90;12.50;;;;;;;9.45;77.97;96931.31;107831;1291;22300;-84
2022/04/06 08:50:39;;;;;;;12.20;11.10;;;;;;;9.54;77.76;96925.54;107571;1291;22480;-84
2022/04/06 08:53:08;;;;;;;14.40;11.80;;;;;;;9.62;77.58;96930.14;107832;1291;23035;-84
2022/04/06 08:55:36;;;;;;;14.90;13.60;;;;;;;9.72;77.09;96928.00;107802;1290;22418;-84
2022/04/06 08:58:04;;;;;;;12.10;10.90;;;;;;;9.80;76.91;96927.93;107789;1291;22309;-84
2022/04/06 09:00:33;;;;;;;14.50;13.00;;;;;;;9.85;76.83;96931.06;107809;1291;23285;-85
2022/04/06 09:03:00;;;;;;;10.90;9.90;;;;;;;9.87;76.14;96935.14;107800;1290;23034;-84
2022/04/06 09:05:32;;;;;;;10.60;9.50;;;;;;;9.89;76.08;96922.33;107794;1291;23300;-85
2022/04/06 09:08:02;;;;;;;15.40;14.00;;;;;;;9.92;75.83;96929.00;107806;1291;22487;-83
2022/04/06 09:10:38;;;;;;;10.60;9.60;;;;;;;9.95;76.19;96931.28;107587;1291;22263;-84
2022/04/06 09:13:26;;;;;;;14.10;12.80;;;;;;;9.93;75.78;96929.81;107585;1291;22476;-85
2022/04/06 09:15:59;;;;;;;10.80;9.60;;;;;;;9.85;75.94;96939.67;107820;1290;22830;-84
2022/04/06 09:18:35;;;;;;;15.60;14.10;;;;;;;9.78;76.08;96939.92;107825;1291;22340;-87
2022/04/06 09:21:03;;;;;;;18.10;16.50;;;;;;;9.73;76.30;96936.54;107787;1290;22476;-87
2022/04/06 09:23:32;;;;;;;10.60;9.60;;;;;;;9.69;76.58;96936.66;107829;1291;22427;-86
2022/04/06 09:26:08;;;;;;;14.20;12.90;;;;;;;9.63;76.70;96943.63;107797;1290;22362;-86
2022/04/06 09:28:41;;;;;;;12.30;11.00;;;;;;;9.59;77.21;96937.08;107820;1290;23104;-84
2022/04/06 09:31:15;;;;;;;12.50;11.40;;;;;;;9.58;77.22;96939.41;107822;1289;22256;-86
2022/04/06 09:33:54;;;;;;;23.60;21.60;;;;;;;9.58;77.34;96930.25;107810;1291;22466;-87
2022/04/06 09:36:22;;;;;;;15.50;13.90;;;;;;;9.63;77.05;96933.55;107808;1290;22519;-87
2022/04/06 09:38:51;;;;;;;21.40;19.60;;;;;;;9.68;77.10;96928.34;107566;1290;22944;-86
2022/04/06 09:41:19;;;;;;;14.20;12.90;;;;;;;9.77;76.55;96925.71;107834;1289;22486;-88
2022/04/06 09:43:48;;;;;;;13.20;12.00;;;;;;;9.86;76.22;96923.91;108007;1290;22359;-85
2022/04/06 09:49:18;;;;;;;11.80;10.70;;;;;;;10.06;75.77;96919.98;107965;1290;22547;-86
2022/04/06 09:51:51;;;;;;;15.20;13.90;;;;;;;10.16;75.65;96913.11;108004;1290;22372;-87
2022/04/06 09:54:20;;;;;;;11.20;10.10;;;;;;;10.24;74.87;96903.79;107994;1290;22526;-86
2022/04/06 09:56:48;;;;;;;12.20;11.00;;;;;;;10.29;74.39;96917.61;107999;1290;23045;-86
2022/04/06 09:59:16;;;;;;;13.40;12.00;;;;;;;10.31;74.18;96921.77;108010;1290;22325;-86
2022/04/06 10:01:48;;;;;;;13.30;12.00;;;;;;;10.32;73.95;96911.45;108012;1290;22373;-83
2022/04/06 10:04:24;;;;;;;10.40;9.40;;;;;;;10.35;73.72;96910.56;107573;1290;22307;-87
2022/04/06 10:06:55;;;;;;;13.50;12.10;;;;;;;10.37;73.54;96913.02;107667;1290;22269;-86
2022/04/06 10:09:25;;;;;;;15.60;14.20;;;;;;;10.38;73.73;96907.34;108006;1290;22481;-87
2022/04/06 10:11:54;;;;;;;20.90;19.00;;;;;;;10.40;73.77;96906.77;107964;1290;23100;-86
2022/04/06 10:14:24;;;;;;;15.80;14.30;;;;;;;10.40;73.27;96903.30;107678;1290;22287;-86
2022/04/06 10:16:54;;;;;;;15.10;13.10;;;;;;;10.37;73.30;96903.58;107991;1290;22489;-86
2022/04/06 10:19:30;;;;;;;10.20;9.00;;;;;;;10.36;72.89;96903.78;107969;1290;22490;-86
2022/04/06 10:22:20;;;;;;;11.90;10.70;;;;;;;10.35;72.85;96903.08;108089;1290;22392;-88
2022/04/06 10:24:53;;;;;;;28.50;25.70;;;;;;;10.33;72.66;96902.55;107998;1290;23086;-89
2022/04/06 10:27:35;;;;;;;26.60;24.10;;;;;;;10.31;72.85;96904.87;108021;1290;22497;-87
2022/04/06 10:30:17;;;;;;;23.20;21.00;;;;;;;10.30;72.78;96897.21;107996;1290;22274;-86
2022/04/06 10:32:48;;;;;;;24.40;22.20;;;;;;;10.32;72.99;96900.74;107982;1290;22319;-84
2022/04/06 10:35:17;;;;;;;19.30;17.40;;;;;;;10.37;73.04;96889.42;107699;1290;22373;-85
2022/04/06 10:37:49;;;;;;;60.40;54.50;;;;;;;10.42;72.80;96885.29;108011;1290;22444;-85
2022/04/06 10:40:17;;;;;;;30.70;27.90;;;;;;;10.45;72.62;96895.84;107820;1290;22267;-87
2022/04/06 10:42:46;;;;;;;28.30;25.90;;;;;;;10.47;72.31;96886.84;107594;1291;22984;-84
2022/04/06 10:45:27;;;;;;;25.80;21.20;;;;;;;10.51;72.44;96879.36;107819;1291;22270;-84
2022/04/06 10:48:15;;;;;;;50.80;44.50;;;;;;;10.61;72.38;96872.33;107838;1291;22416;-83
2022/04/06 10:50:45;;;;;;;19.40;17.30;;;;;;;10.79;71.73;96886.24;107834;1290;22376;-85
2022/04/06 10:53:19;;;;;;;25.10;22.30;;;;;;;10.97;71.55;96879.77;107850;1290;22339;-84
2022/04/06 10:56:12;;;;;;;23.20;20.90;;;;;;;11.15;71.37;96883.27;107844;1290;22460;-84
2022/04/06 10:58:55;;;;;;;29.20;26.50;;;;;;;11.31;69.52;96875.54;107823;1291;22409;-85
2022/04/06 11:01:29;;;;;;;51.60;45.50;;;;;;;11.41;69.42;96882.30;107859;1291;22511;-84
2022/04/06 11:03:59;;;;;;;24.60;22.00;;;;;;;11.45;68.73;96871.89;107821;1290;22365;-85
2022/04/06 11:06:59;;;;;;;57.30;51.60;;;;;;;11.44;69.35;96873.48;107838;1290;22398;-86
2022/04/06 11:12:25;;;;;;;25.20;22.40;;;;;;;11.57;68.70;96878.36;107813;1290;22353;-87
2022/04/06 11:14:59;;;;;;;13.50;11.90;;;;;;;11.58;67.82;96884.63;107812;1289;22464;-88
2022/04/06 11:17:34;;;;;;;14.20;11.60;;;;;;;11.55;67.11;96881.61;107850;1291;23206;-87
2022/04/06 11:20:15;;;;;;;9.20;8.30;;;;;;;11.53;67.13;96877.60;107853;1291;22864;-88
2022/04/06 11:22:46;;;;;;;20.70;15.90;;;;;;;11.54;66.83;96872.14;107860;1290;22287;-88
2022/04/06 11:25:17;;;;;;;16.20;14.60;;;;;;;11.55;66.78;96876.07;107837;1291;22294;-85
2022/04/06 11:27:46;;;;;;;14.60;13.10;;;;;;;11.59;67.55;96873.48;107836;1290;22320;-85
2022/04/06 11:30:19;;;;;;;12.10;10.50;;;;;;;11.65;67.64;96873.55;107836;1291;22387;-87
2022/04/06 11:32:59;;;;;;;10.10;8.80;;;;;;;11.72;67.11;96876.14;107857;1290;22441;-85
2022/04/06 11:35:29;;;;;;;9.10;8.20;;;;;;;11.83;67.00;96882.85;107837;1290;22550;-85
2022/04/06 11:37:58;;;;;;;10.10;9.10;;;;;;;11.83;65.29;96883.54;107812;1291;22440;-87